createdAt,value
2023-01-12T00:00:09.125Z,980.93
2023-01-12T00:00:40.098Z,980.83
2023-01-12T00:01:11.774Z,980.83
2023-01-12T00:01:43.733Z,980.93
2023-01-12T00:02:15.683Z,980.93
2023-01-12T00:02:47.579Z,981.04
2023-01-12T00:03:19.666Z,981.04
2023-01-12T00:03:51.933Z,981.04
2023-01-12T00:04:23.585Z,980.93
2023-01-12T00:04:55.649Z,980.93
2023-01-12T00:05:27.858Z,980.83
2023-01-12T00:05:59.617Z,980.83
2023-01-12T00:06:31.615Z,980.83
2023-01-12T00:07:04.221Z,980.83
2023-01-12T00:07:35.423Z,980.83
2023-01-12T00:08:07.631Z,980.83
2023-01-12T00:08:39.464Z,980.93
2023-01-12T00:09:11.812Z,980.93
2023-01-12T00:09:27.582Z,980.93
2023-01-12T00:10:11.742Z,980.93
2023-01-12T00:10:43.420Z,980.93
2023-01-12T00:11:15.172Z,980.93
2023-01-12T00:11:47.337Z,981.04
2023-01-12T00:12:19.352Z,980.93
2023-01-12T00:12:51.398Z,980.93
2023-01-12T00:13:23.463Z,980.93
2023-01-12T00:13:55.174Z,980.93
2023-01-12T00:14:27.132Z,980.83
2023-01-12T00:14:59.500Z,980.83
2023-01-12T00:15:31.447Z,980.93
2023-01-12T00:16:03.495Z,980.93
2023-01-12T00:16:35.163Z,981.04
2023-01-12T00:17:07.139Z,981.04
2023-01-12T00:17:38.969Z,981.04
2023-01-12T00:18:11.132Z,981.04
2023-01-12T00:18:27.100Z,980.73
2023-01-12T00:18:59.163Z,980.73
2023-01-12T00:19:43.043Z,980.93
2023-01-12T00:20:15.074Z,980.93
2023-01-12T00:20:46.929Z,980.83
2023-01-12T00:21:19.138Z,980.93
2023-01-12T00:21:51.094Z,980.93
2023-01-12T00:22:23.000Z,980.83
2023-01-12T00:22:54.805Z,980.83
2023-01-12T00:23:26.734Z,980.73
2023-01-12T00:23:59.113Z,980.73
2023-01-12T00:24:31.035Z,980.73
2023-01-12T00:25:03.911Z,980.73
2023-01-12T00:25:34.759Z,980.73
2023-01-12T00:26:06.884Z,980.73
2023-01-12T00:26:38.687Z,980.63
2023-01-12T00:27:11.038Z,980.63
2023-01-12T00:27:26.653Z,980.63
2023-01-12T00:28:10.825Z,980.63
2023-01-12T00:28:42.711Z,980.93
2023-01-12T00:29:14.433Z,980.93
2023-01-12T00:29:46.582Z,981.04
2023-01-12T00:30:18.985Z,980.73
2023-01-12T00:30:50.586Z,980.73
2023-01-12T00:31:22.611Z,980.93
2023-01-12T00:31:54.406Z,980.93
2023-01-12T00:32:26.433Z,980.83
2023-01-12T00:32:58.464Z,980.83
2023-01-12T00:33:30.269Z,980.83
2023-01-12T00:34:02.836Z,980.83
2023-01-12T00:34:34.324Z,980.83
2023-01-12T00:35:06.604Z,980.83
2023-01-12T00:35:38.207Z,981.14
2023-01-12T00:36:10.486Z,981.14
2023-01-12T00:36:26.432Z,980.83
2023-01-12T00:36:58.254Z,980.83
2023-01-12T00:37:42.257Z,980.93
2023-01-12T00:38:14.020Z,980.93
2023-01-12T00:38:46.177Z,980.83
2023-01-12T00:39:18.133Z,980.93
2023-01-12T00:40:01.261Z,980.93
2023-01-12T00:40:22.337Z,980.83
2023-01-12T00:40:53.977Z,980.83
2023-01-12T00:41:10.437Z,980.83
2023-01-12T00:41:54.048Z,980.93
2023-01-12T00:42:26.184Z,980.93
2023-01-12T00:42:57.866Z,980.93
2023-01-12T00:43:29.936Z,980.73
2023-01-12T00:44:02.592Z,980.73
2023-01-12T00:44:34.015Z,980.73
2023-01-12T00:45:06.687Z,980.73
2023-01-12T00:45:37.883Z,980.73
2023-01-12T00:46:10.125Z,980.73
2023-01-12T00:46:41.889Z,981.14
2023-01-12T00:47:13.749Z,981.14
2023-01-12T00:47:45.802Z,981.04
2023-01-12T00:48:17.694Z,980.83
2023-01-12T00:48:50.054Z,980.83
2023-01-12T00:49:21.687Z,980.73
2023-01-12T00:49:53.594Z,980.73
2023-01-12T00:50:25.961Z,980.73
2023-01-12T00:50:57.866Z,980.73
2023-01-12T00:51:29.655Z,980.73
2023-01-12T00:52:02.136Z,980.73
2023-01-12T00:52:33.500Z,980.73
2023-01-12T00:53:05.770Z,980.73
2023-01-12T00:53:37.407Z,980.93
2023-01-12T00:54:09.680Z,980.93
2023-01-12T00:54:25.673Z,980.93
2023-01-12T00:54:57.275Z,980.93
2023-01-12T00:55:41.884Z,980.63
2023-01-12T00:56:13.400Z,980.63
2023-01-12T00:56:45.343Z,980.73
2023-01-12T00:57:17.442Z,980.73
2023-01-12T00:57:49.614Z,980.73
2023-01-12T00:58:21.470Z,980.73
2023-01-12T00:58:53.373Z,980.73
2023-01-12T00:59:25.488Z,980.43
2023-01-12T00:59:57.210Z,980.43
2023-01-12T01:00:29.620Z,980.83
2023-01-12T01:01:01.897Z,980.83
2023-01-12T01:01:33.259Z,980.73
2023-01-12T01:02:05.676Z,980.73
2023-01-12T01:02:37.276Z,980.73
2023-01-12T01:03:09.145Z,980.73
2023-01-12T01:03:41.420Z,980.63
2023-01-12T01:04:13.180Z,980.63
2023-01-12T01:04:44.949Z,980.73
2023-01-12T01:05:17.462Z,980.83
2023-01-12T01:05:49.712Z,980.83
2023-01-12T01:06:21.117Z,980.93
2023-01-12T01:06:53.003Z,980.93
2023-01-12T01:07:09.123Z,980.93
2023-01-12T01:07:41.224Z,980.63
2023-01-12T01:08:25.029Z,980.83
2023-01-12T01:08:56.988Z,980.83
2023-01-12T01:09:28.907Z,980.73
2023-01-12T01:10:01.954Z,980.73
2023-01-12T01:10:32.938Z,980.53
2023-01-12T01:11:05.497Z,980.53
2023-01-12T01:11:36.770Z,980.73
2023-01-12T01:12:08.795Z,980.73
2023-01-12T01:12:24.994Z,980.53
2023-01-12T01:12:56.786Z,980.53
2023-01-12T01:13:41.122Z,980.63
2023-01-12T01:14:12.545Z,980.63
2023-01-12T01:14:44.663Z,980.63
2023-01-12T01:15:17.829Z,980.63
2023-01-12T01:15:48.722Z,980.63
2023-01-12T01:16:20.863Z,980.73
2023-01-12T01:16:52.626Z,980.73
2023-01-12T01:17:24.429Z,980.93
2023-01-12T01:17:56.732Z,980.93
2023-01-12T01:18:28.482Z,980.73
2023-01-12T01:19:00.643Z,980.73
2023-01-12T01:19:32.685Z,980.53
2023-01-12T01:20:04.920Z,980.53
2023-01-12T01:20:36.260Z,980.73
2023-01-12T01:21:08.382Z,980.73
2023-01-12T01:21:40.572Z,980.63
2023-01-12T01:22:12.396Z,980.63
2023-01-12T01:22:44.258Z,980.73
2023-01-12T01:23:16.408Z,980.63
2023-01-12T01:23:48.232Z,980.63
2023-01-12T01:24:20.429Z,980.63
2023-01-12T01:24:52.318Z,980.63
2023-01-12T01:25:24.418Z,980.73
2023-01-12T01:25:56.237Z,980.73
2023-01-12T01:26:28.300Z,980.63
2023-01-12T01:27:00.024Z,980.63
2023-01-12T01:27:32.199Z,980.83
2023-01-12T01:28:04.474Z,980.83
2023-01-12T01:28:36.130Z,980.53
2023-01-12T01:29:08.062Z,980.53
2023-01-12T01:29:24.105Z,980.73
2023-01-12T01:29:56.051Z,980.73
2023-01-12T01:30:40.557Z,980.73
2023-01-12T01:31:12.240Z,980.73
2023-01-12T01:31:43.914Z,980.73
2023-01-12T01:32:16.017Z,980.73
2023-01-12T01:32:47.977Z,980.63
2023-01-12T01:33:20.135Z,981.04
2023-01-12T01:33:52.020Z,981.04
2023-01-12T01:34:23.936Z,980.73
2023-01-12T01:34:56.001Z,980.73
2023-01-12T01:35:28.179Z,980.53
2023-01-12T01:35:59.811Z,980.53
2023-01-12T01:36:32.043Z,980.83
2023-01-12T01:37:04.440Z,980.83
2023-01-12T01:37:35.824Z,980.73
2023-01-12T01:38:07.711Z,980.73
2023-01-12T01:38:23.925Z,980.83
2023-01-12T01:39:07.714Z,980.83
2023-01-12T01:39:39.788Z,980.83
2023-01-12T01:40:11.930Z,980.83
2023-01-12T01:40:43.522Z,980.73
2023-01-12T01:41:15.556Z,980.73
2023-01-12T01:41:47.613Z,980.93
2023-01-12T01:42:19.938Z,980.73
2023-01-12T01:42:51.486Z,980.73
2023-01-12T01:43:23.563Z,980.73
2023-01-12T01:43:55.675Z,980.73
2023-01-12T01:44:27.261Z,980.83
2023-01-12T01:44:59.457Z,980.83
2023-01-12T01:45:31.999Z,980.93
2023-01-12T01:46:03.554Z,980.93
2023-01-12T01:46:35.393Z,980.83
2023-01-12T01:47:07.304Z,980.83
2023-01-12T01:47:23.399Z,980.83
2023-01-12T01:47:55.193Z,980.83
2023-01-12T01:48:39.419Z,980.93
2023-01-12T01:49:11.584Z,980.93
2023-01-12T01:49:43.219Z,980.93
2023-01-12T01:50:15.468Z,980.93
2023-01-12T01:50:47.306Z,980.83
2023-01-12T01:51:19.362Z,980.93
2023-01-12T01:51:51.461Z,980.93
2023-01-12T01:52:23.200Z,980.83
2023-01-12T01:52:54.870Z,980.83
2023-01-12T01:53:26.971Z,981.04
2023-01-12T01:53:59.143Z,981.04
2023-01-12T01:54:31.359Z,981.04
2023-01-12T01:55:04.092Z,981.04
2023-01-12T01:55:34.948Z,980.83
2023-01-12T01:56:07.031Z,980.83
2023-01-12T01:56:38.959Z,981.14
2023-01-12T01:57:10.945Z,981.14
2023-01-12T01:57:42.818Z,981.04
2023-01-12T01:58:14.759Z,981.04
2023-01-12T01:58:46.976Z,981.14
2023-01-12T01:59:18.645Z,980.93
2023-01-12T01:59:50.995Z,980.93
2023-01-12T02:00:23.217Z,980.83
2023-01-12T02:00:54.741Z,980.83
2023-01-12T02:01:26.765Z,981.04
2023-01-12T02:01:58.766Z,981.04
2023-01-12T02:02:30.627Z,981.04
2023-01-12T02:03:03.672Z,981.04
2023-01-12T02:03:36.869Z,980.83
2023-01-12T02:04:06.542Z,980.83
2023-01-12T02:04:22.711Z,980.93
2023-01-12T02:04:54.453Z,980.93
2023-01-12T02:05:38.941Z,981.14
2023-01-12T02:06:10.599Z,981.14
2023-01-12T02:06:42.430Z,981.14
2023-01-12T02:07:14.467Z,981.14
2023-01-12T02:07:46.501Z,980.93
2023-01-12T02:08:18.333Z,980.83
2023-01-12T02:08:50.450Z,980.83
2023-01-12T02:09:06.591Z,980.83
2023-01-12T02:09:50.535Z,981.04
2023-01-12T02:10:22.683Z,980.83
2023-01-12T02:10:54.173Z,980.83
2023-01-12T02:11:26.366Z,980.93
2023-01-12T02:11:58.258Z,980.93
2023-01-12T02:12:30.375Z,980.63
2023-01-12T02:13:03.021Z,980.63
2023-01-12T02:13:34.055Z,980.83
2023-01-12T02:14:06.277Z,980.83
2023-01-12T02:14:38.340Z,980.83
2023-01-12T02:15:11.580Z,980.83
2023-01-12T02:15:42.236Z,980.93
2023-01-12T02:16:14.156Z,980.93
2023-01-12T02:16:46.092Z,980.73
2023-01-12T02:17:18.228Z,980.83
2023-01-12T02:17:50.095Z,980.83
2023-01-12T02:18:06.178Z,980.83
2023-01-12T02:18:38.069Z,980.83
2023-01-12T02:18:54.020Z,980.83
2023-01-12T02:19:26.004Z,980.73
2023-01-12T02:19:57.932Z,980.73
2023-01-12T02:20:30.272Z,980.73
2023-01-12T02:21:02.667Z,980.73
2023-01-12T02:21:33.716Z,980.83
2023-01-12T02:22:05.897Z,980.83
2023-01-12T02:22:21.987Z,980.93
2023-01-12T02:22:53.736Z,980.93
2023-01-12T02:23:37.954Z,980.83
2023-01-12T02:24:09.793Z,980.83
2023-01-12T02:24:41.876Z,980.63
2023-01-12T02:25:14.023Z,980.63
2023-01-12T02:25:45.736Z,980.63
2023-01-12T02:26:17.639Z,980.53
2023-01-12T02:26:49.762Z,980.53
2023-01-12T02:27:05.809Z,980.53
2023-01-12T02:27:49.668Z,980.63
2023-01-12T02:28:21.739Z,980.73
2023-01-12T02:28:53.469Z,980.73
2023-01-12T02:29:25.686Z,980.63
2023-01-12T02:29:57.525Z,980.63
2023-01-12T02:30:29.974Z,980.43
2023-01-12T02:31:02.372Z,980.43
2023-01-12T02:31:33.516Z,980.73
2023-01-12T02:32:05.540Z,980.73
2023-01-12T02:32:37.571Z,980.83
2023-01-12T02:33:09.476Z,980.83
2023-01-12T02:33:41.448Z,980.83
2023-01-12T02:34:13.344Z,980.83
2023-01-12T02:34:45.338Z,980.63
2023-01-12T02:35:17.500Z,980.63
2023-01-12T02:35:49.364Z,980.63
2023-01-12T02:36:21.436Z,980.63
2023-01-12T02:36:53.331Z,980.63
2023-01-12T02:37:25.032Z,980.63
2023-01-12T02:37:57.252Z,980.63
2023-01-12T02:38:29.469Z,980.63
2023-01-12T02:39:01.713Z,980.63
2023-01-12T02:39:33.173Z,980.53
2023-01-12T02:40:05.424Z,980.53
2023-01-12T02:40:21.376Z,980.73
2023-01-12T02:40:53.337Z,980.73
2023-01-12T02:41:37.202Z,980.32
2023-01-12T02:42:09.074Z,980.32
2023-01-12T02:42:41.293Z,980.53
2023-01-12T02:43:12.977Z,980.53
2023-01-12T02:43:45.142Z,980.63
2023-01-12T02:44:16.954Z,980.63
2023-01-12T02:44:48.932Z,980.63
2023-01-12T02:45:06.555Z,980.63
2023-01-12T02:45:48.923Z,980.43
2023-01-12T02:46:21.137Z,980.32
2023-01-12T02:46:52.855Z,980.32
2023-01-12T02:47:24.712Z,980.32
2023-01-12T02:47:56.880Z,980.32
2023-01-12T02:48:29.084Z,980.32
2023-01-12T02:49:01.233Z,980.32
2023-01-12T02:49:32.810Z,980.53
2023-01-12T02:50:05.122Z,980.53
2023-01-12T02:50:36.690Z,980.43
2023-01-12T02:51:08.646Z,980.43
2023-01-12T02:51:40.784Z,980.43
2023-01-12T02:52:14.117Z,980.43
2023-01-12T02:52:45.313Z,980.22
2023-01-12T02:53:16.535Z,980.22
2023-01-12T02:53:48.473Z,980.22
2023-01-12T02:54:20.719Z,980.32
2023-01-12T02:54:52.623Z,980.32
2023-01-12T02:55:24.624Z,980.12
2023-01-12T02:55:56.509Z,980.12
2023-01-12T02:56:28.362Z,980.12
2023-01-12T02:57:00.770Z,980.12
2023-01-12T02:57:32.466Z,980.12
2023-01-12T02:58:04.497Z,980.12
2023-01-12T02:58:36.381Z,979.92
2023-01-12T02:59:08.424Z,979.92
2023-01-12T02:59:40.191Z,979.92
2023-01-12T03:00:13.221Z,979.92
2023-01-12T03:00:44.369Z,980.02
2023-01-12T03:01:16.379Z,979.92
2023-01-12T03:01:48.207Z,979.92
2023-01-12T03:02:04.377Z,979.92
2023-01-12T03:02:48.123Z,980.22
2023-01-12T03:03:04.552Z,980.22
2023-01-12T03:03:48.160Z,980.12
2023-01-12T03:04:20.223Z,980.12
2023-01-12T03:04:52.098Z,980.12
2023-01-12T03:05:24.233Z,979.82
2023-01-12T03:05:56.166Z,979.82
2023-01-12T03:06:27.966Z,980.12
2023-01-12T03:07:00.055Z,980.12
2023-01-12T03:07:32.078Z,980.02
2023-01-12T03:08:04.162Z,980.02
2023-01-12T03:08:36.051Z,980.12
2023-01-12T03:09:07.874Z,980.12
2023-01-12T03:09:39.823Z,979.82
2023-01-12T03:10:12.226Z,979.82
2023-01-12T03:10:44.013Z,979.92
2023-01-12T03:11:15.733Z,979.92
2023-01-12T03:11:47.878Z,979.82
2023-01-12T03:12:19.787Z,979.82
2023-01-12T03:12:51.863Z,979.82
2023-01-12T03:13:23.715Z,979.82
2023-01-12T03:13:55.678Z,979.82
2023-01-12T03:14:27.625Z,979.71
2023-01-12T03:14:59.920Z,979.71
2023-01-12T03:15:32.020Z,979.71
2023-01-12T03:16:04.216Z,979.71
2023-01-12T03:16:19.749Z,980.12
2023-01-12T03:16:51.695Z,980.12
2023-01-12T03:17:35.625Z,980.12
2023-01-12T03:18:07.455Z,980.12
2023-01-12T03:18:39.612Z,980.02
2023-01-12T03:19:11.802Z,980.02
2023-01-12T03:19:43.483Z,980.02
2023-01-12T03:20:15.606Z,980.02
2023-01-12T03:20:47.392Z,980.12
2023-01-12T03:21:19.456Z,980.22
2023-01-12T03:21:51.596Z,980.22
2023-01-12T03:22:23.264Z,980.32
2023-01-12T03:22:55.209Z,980.32
2023-01-12T03:23:27.333Z,980.02
2023-01-12T03:23:59.579Z,980.02
2023-01-12T03:24:31.143Z,980.02
2023-01-12T03:25:04.253Z,980.02
2023-01-12T03:25:19.309Z,980.02
2023-01-12T03:26:03.728Z,980.02
2023-01-12T03:26:35.266Z,980.32
2023-01-12T03:27:07.024Z,980.32
2023-01-12T03:27:39.139Z,980.12
2023-01-12T03:28:11.273Z,980.12
2023-01-12T03:28:43.097Z,980.22
2023-01-12T03:29:15.037Z,980.22
2023-01-12T03:29:47.033Z,980.02
2023-01-12T03:30:19.511Z,980.12
2023-01-12T03:30:51.339Z,980.12
2023-01-12T03:31:23.025Z,980.12
2023-01-12T03:31:54.897Z,980.12
2023-01-12T03:32:27.053Z,980.32
2023-01-12T03:32:59.058Z,980.32
2023-01-12T03:33:31.010Z,980.02
2023-01-12T03:34:03.720Z,980.02
2023-01-12T03:34:34.803Z,979.92
2023-01-12T03:35:07.113Z,979.92
2023-01-12T03:35:38.768Z,980.02
2023-01-12T03:36:10.721Z,980.02
2023-01-12T03:36:43.025Z,979.92
2023-01-12T03:37:14.746Z,979.92
2023-01-12T03:37:46.646Z,979.92
2023-01-12T03:38:03.819Z,979.92
2023-01-12T03:38:46.696Z,979.92
2023-01-12T03:39:18.760Z,979.92
2023-01-12T03:39:50.923Z,979.92
2023-01-12T03:40:22.789Z,980.02
2023-01-12T03:40:54.585Z,980.02
2023-01-12T03:41:26.684Z,980.02
2023-01-12T03:41:58.551Z,980.02
2023-01-12T03:42:30.444Z,979.92
2023-01-12T03:43:03.412Z,979.92
2023-01-12T03:43:34.437Z,979.92
2023-01-12T03:44:06.578Z,979.92
2023-01-12T03:44:38.430Z,979.92
2023-01-12T03:45:11.648Z,979.92
2023-01-12T03:45:42.520Z,980.02
2023-01-12T03:46:14.488Z,980.02
2023-01-12T03:46:46.274Z,980.22
2023-01-12T03:47:18.308Z,979.71
2023-01-12T03:47:34.322Z,979.71
2023-01-12T03:48:18.337Z,979.82
2023-01-12T03:48:50.177Z,979.82
2023-01-12T03:49:22.299Z,980.12
2023-01-12T03:49:54.228Z,980.12
2023-01-12T03:50:26.623Z,980.32
2023-01-12T03:50:58.178Z,980.32
2023-01-12T03:51:30.261Z,980.12
2023-01-12T03:52:03.145Z,980.12
2023-01-12T03:52:34.231Z,980.12
2023-01-12T03:53:06.032Z,980.12
2023-01-12T03:53:37.955Z,980.02
2023-01-12T03:54:10.246Z,980.02
2023-01-12T03:54:42.300Z,980.02
2023-01-12T03:55:14.187Z,980.02
2023-01-12T03:55:46.068Z,979.71
2023-01-12T03:56:03.000Z,979.71
2023-01-12T03:56:46.041Z,979.92
2023-01-12T03:57:18.033Z,979.92
2023-01-12T03:57:49.731Z,979.92
2023-01-12T03:58:21.900Z,980.02
2023-01-12T03:58:53.743Z,980.02
2023-01-12T03:59:25.817Z,979.82
2023-01-12T03:59:57.623Z,979.82
2023-01-12T04:00:30.363Z,980.02
2023-01-12T04:01:02.852Z,980.02
2023-01-12T04:01:33.886Z,979.92
2023-01-12T04:02:05.638Z,979.92
2023-01-12T04:02:37.551Z,979.82
2023-01-12T04:03:09.750Z,979.82
2023-01-12T04:03:41.974Z,979.82
2023-01-12T04:04:13.474Z,979.82
2023-01-12T04:04:45.609Z,979.82
2023-01-12T04:05:02.280Z,979.82
2023-01-12T04:05:33.549Z,979.92
2023-01-12T04:05:49.931Z,979.92
2023-01-12T04:06:21.701Z,979.82
2023-01-12T04:06:53.409Z,979.82
2023-01-12T04:07:25.485Z,979.92
2023-01-12T04:07:57.461Z,979.92
2023-01-12T04:08:29.503Z,979.71
2023-01-12T04:09:02.010Z,979.71
2023-01-12T04:09:17.632Z,979.71
2023-01-12T04:09:49.363Z,979.71
2023-01-12T04:10:33.937Z,979.82
2023-01-12T04:11:05.299Z,979.82
2023-01-12T04:11:37.367Z,980.02
2023-01-12T04:12:09.522Z,980.02
2023-01-12T04:12:41.492Z,979.82
2023-01-12T04:13:13.202Z,979.82
2023-01-12T04:13:45.316Z,979.61
2023-01-12T04:14:01.916Z,979.61
2023-01-12T04:14:47.772Z,979.82
2023-01-12T04:15:18.105Z,979.82
2023-01-12T04:15:49.163Z,979.82
2023-01-12T04:16:21.150Z,979.71
2023-01-12T04:16:53.139Z,979.71
2023-01-12T04:17:25.161Z,979.82
2023-01-12T04:17:56.961Z,979.82
2023-01-12T04:18:28.924Z,979.82
2023-01-12T04:19:01.353Z,979.82
2023-01-12T04:19:33.125Z,980.02
2023-01-12T04:20:05.175Z,980.02
2023-01-12T04:20:36.900Z,980.12
2023-01-12T04:21:09.072Z,980.12
2023-01-12T04:21:41.066Z,979.92
2023-01-12T04:22:12.763Z,979.92
2023-01-12T04:22:44.797Z,979.82
2023-01-12T04:23:16.795Z,979.92
2023-01-12T04:23:49.001Z,979.92
2023-01-12T04:24:20.836Z,979.92
2023-01-12T04:24:52.863Z,979.92
2023-01-12T04:25:25.124Z,979.82
2023-01-12T04:25:56.745Z,979.82
2023-01-12T04:26:28.627Z,980.02
2023-01-12T04:27:00.556Z,980.02
2023-01-12T04:27:16.746Z,979.92
2023-01-12T04:27:48.675Z,979.92
2023-01-12T04:28:32.846Z,979.71
2023-01-12T04:29:04.852Z,979.71
2023-01-12T04:29:36.630Z,979.71
2023-01-12T04:30:09.951Z,979.71
2023-01-12T04:30:40.710Z,979.61
2023-01-12T04:31:12.543Z,979.61
2023-01-12T04:31:44.514Z,979.61
2023-01-12T04:32:16.490Z,979.61
2023-01-12T04:32:48.573Z,979.61
2023-01-12T04:33:20.254Z,979.71
2023-01-12T04:33:52.478Z,979.71
2023-01-12T04:34:24.433Z,979.61
2023-01-12T04:34:56.286Z,979.61
2023-01-12T04:35:28.643Z,979.71
2023-01-12T04:36:00.371Z,979.71
2023-01-12T04:36:16.375Z,979.82
2023-01-12T04:37:00.413Z,979.82
2023-01-12T04:37:32.307Z,979.82
2023-01-12T04:38:04.606Z,979.82
2023-01-12T04:38:36.181Z,979.61
2023-01-12T04:39:08.151Z,979.61
2023-01-12T04:39:40.474Z,979.82
2023-01-12T04:40:12.299Z,979.82
2023-01-12T04:40:43.938Z,979.61
2023-01-12T04:41:16.124Z,979.61
2023-01-12T04:41:48.177Z,979.61
2023-01-12T04:42:19.917Z,979.71
2023-01-12T04:42:52.246Z,979.71
2023-01-12T04:43:24.143Z,979.71
2023-01-12T04:43:56.061Z,979.71
2023-01-12T04:44:27.879Z,979.71
2023-01-12T04:45:00.019Z,979.71
2023-01-12T04:45:17.240Z,979.71
2023-01-12T04:45:47.972Z,979.61
2023-01-12T04:46:31.947Z,979.61
2023-01-12T04:47:04.197Z,979.61
2023-01-12T04:47:35.804Z,979.71
2023-01-12T04:48:07.758Z,979.71
2023-01-12T04:48:39.931Z,979.71
2023-01-12T04:49:11.790Z,979.71
2023-01-12T04:49:43.745Z,979.51
2023-01-12T04:50:16.036Z,979.51
2023-01-12T04:50:47.721Z,979.51
2023-01-12T04:51:19.608Z,979.51
2023-01-12T04:51:51.685Z,979.51
2023-01-12T04:52:23.739Z,979.51
2023-01-12T04:52:55.580Z,979.51
2023-01-12T04:53:27.677Z,979.61
2023-01-12T04:53:59.603Z,979.61
2023-01-12T04:54:31.691Z,979.51
2023-01-12T04:55:04.676Z,979.51
2023-01-12T04:55:35.292Z,979.41
2023-01-12T04:56:07.631Z,979.41
2023-01-12T04:56:39.647Z,979.61
2023-01-12T04:57:11.410Z,979.61
2023-01-12T04:57:43.377Z,979.51
2023-01-12T04:58:15.297Z,979.51
2023-01-12T04:58:47.332Z,979.31
2023-01-12T04:59:19.490Z,979.31
2023-01-12T04:59:51.200Z,979.31
2023-01-12T05:00:25.434Z,979.24
2023-01-12T05:00:55.371Z,979.24
2023-01-12T05:01:27.527Z,979.31
2023-01-12T05:01:59.157Z,979.31
2023-01-12T05:02:15.288Z,979.31
2023-01-12T05:02:47.098Z,979.61
2023-01-12T05:03:31.289Z,979.14
2023-01-12T05:04:06.877Z,979.14
2023-01-12T05:04:35.069Z,979.31
2023-01-12T05:05:07.353Z,979.31
2023-01-12T05:05:39.101Z,979.41
2023-01-12T05:06:11.418Z,979.41
2023-01-12T05:06:43.055Z,979.51
2023-01-12T05:06:59.132Z,979.51
2023-01-12T05:07:43.082Z,979.24
2023-01-12T05:08:14.912Z,979.24
2023-01-12T05:08:46.890Z,979.31
2023-01-12T05:09:20.040Z,979.41
2023-01-12T05:09:50.879Z,979.41
2023-01-12T05:10:23.270Z,979.31
2023-01-12T05:10:54.955Z,979.31
2023-01-12T05:11:26.782Z,979.51
2023-01-12T05:11:58.807Z,979.51
2023-01-12T05:12:31.048Z,979.41
2023-01-12T05:13:03.769Z,979.41
2023-01-12T05:13:34.714Z,979.31
2023-01-12T05:14:06.772Z,979.31
2023-01-12T05:14:38.696Z,979.41
2023-01-12T05:15:12.179Z,979.41
2023-01-12T05:15:42.719Z,979.31
2023-01-12T05:16:14.596Z,979.31
2023-01-12T05:16:46.703Z,979.41
2023-01-12T05:17:18.683Z,979.41
2023-01-12T05:17:50.423Z,979.41
2023-01-12T05:18:06.693Z,979.41
2023-01-12T05:18:38.415Z,979.51
2023-01-12T05:19:22.806Z,979.61
2023-01-12T05:19:54.421Z,979.61
2023-01-12T05:20:26.657Z,979.24
2023-01-12T05:20:58.608Z,979.24
2023-01-12T05:21:30.599Z,979.31
2023-01-12T05:22:03.242Z,979.31
2023-01-12T05:22:34.409Z,979.41
2023-01-12T05:23:06.300Z,979.41
2023-01-12T05:23:38.333Z,979.41
2023-01-12T05:24:10.362Z,979.41
2023-01-12T05:24:42.406Z,979.41
2023-01-12T05:24:58.375Z,979.41
2023-01-12T05:25:42.623Z,979.24
2023-01-12T05:26:14.177Z,979.24
2023-01-12T05:26:46.077Z,979.31
2023-01-12T05:27:18.132Z,979.41
2023-01-12T05:27:50.109Z,979.41
2023-01-12T05:28:22.211Z,979.24
2023-01-12T05:28:54.017Z,979.24
2023-01-12T05:29:26.140Z,979.51
2023-01-12T05:29:58.130Z,979.51
2023-01-12T05:30:31.811Z,979.31
2023-01-12T05:31:02.681Z,979.31
2023-01-12T05:31:34.081Z,979.41
2023-01-12T05:32:05.902Z,979.41
2023-01-12T05:32:38.030Z,979.14
2023-01-12T05:33:09.807Z,979.14
2023-01-12T05:33:41.837Z,979.51
2023-01-12T05:34:13.924Z,979.51
2023-01-12T05:34:46.054Z,979.04
2023-01-12T05:35:17.989Z,979.04
2023-01-12T05:35:49.798Z,979.04
2023-01-12T05:36:21.837Z,979.41
2023-01-12T05:36:53.881Z,979.41
2023-01-12T05:37:25.962Z,979.41
2023-01-12T05:37:57.739Z,979.41
2023-01-12T05:38:29.757Z,979.31
2023-01-12T05:39:02.310Z,979.31
2023-01-12T05:39:33.518Z,979.31
2023-01-12T05:40:05.948Z,979.31
2023-01-12T05:40:37.636Z,979.24
2023-01-12T05:41:09.766Z,979.24
2023-01-12T05:41:41.595Z,979.24
2023-01-12T05:42:13.626Z,979.24
2023-01-12T05:42:45.512Z,979.41
2023-01-12T05:43:17.523Z,979.41
2023-01-12T05:43:49.647Z,979.41
2023-01-12T05:44:21.477Z,979.14
2023-01-12T05:44:53.359Z,979.14
2023-01-12T05:45:25.828Z,979.31
2023-01-12T05:45:57.397Z,979.31
2023-01-12T05:46:29.525Z,979.24
2023-01-12T05:46:45.350Z,979.24
2023-01-12T05:47:17.359Z,979.04
2023-01-12T05:48:02.089Z,979.04
2023-01-12T05:48:33.131Z,979.04
2023-01-12T05:49:05.644Z,979.04
2023-01-12T05:49:37.235Z,979.24
2023-01-12T05:50:09.680Z,979.24
2023-01-12T05:50:41.088Z,979.31
2023-01-12T05:50:57.592Z,979.31
2023-01-12T05:51:29.329Z,979.24
2023-01-12T05:52:13.196Z,979.24
2023-01-12T05:52:45.071Z,979.24
2023-01-12T05:53:17.157Z,979.51
2023-01-12T05:53:49.266Z,979.51
2023-01-12T05:54:20.974Z,979.31
2023-01-12T05:54:53.127Z,979.31
2023-01-12T05:55:25.178Z,979.14
2023-01-12T05:55:56.888Z,979.14
2023-01-12T05:56:13.050Z,979.14
2023-01-12T05:56:44.767Z,979.41
2023-01-12T05:57:29.130Z,979.31
2023-01-12T05:58:01.157Z,979.31
2023-01-12T05:58:17.080Z,979.31
2023-01-12T05:58:48.804Z,979.31
2023-01-12T05:59:32.889Z,979.24
2023-01-12T06:00:12.755Z,979.24
2023-01-12T06:00:36.769Z,979.51
2023-01-12T06:01:08.822Z,979.51
2023-01-12T06:01:40.844Z,979.31
2023-01-12T06:02:12.669Z,979.31
2023-01-12T06:02:29.088Z,979.14
2023-01-12T06:03:00.980Z,979.14
2023-01-12T06:03:44.606Z,979.31
2023-01-12T06:04:16.840Z,979.41
2023-01-12T06:04:48.658Z,979.41
2023-01-12T06:05:20.743Z,979.51
2023-01-12T06:05:52.688Z,979.51
2023-01-12T06:06:24.585Z,979.31
2023-01-12T06:06:56.497Z,979.31
2023-01-12T06:07:12.552Z,979.31
2023-01-12T06:07:56.534Z,979.24
2023-01-12T06:08:28.594Z,979.31
2023-01-12T06:09:00.724Z,979.31
2023-01-12T06:09:32.533Z,979.24
2023-01-12T06:10:10.197Z,979.24
2023-01-12T06:10:38.674Z,979.24
2023-01-12T06:11:08.553Z,979.24
2023-01-12T06:11:40.211Z,979.31
2023-01-12T06:12:12.337Z,979.31
2023-01-12T06:12:28.515Z,979.14
2023-01-12T06:13:12.234Z,979.14
2023-01-12T06:13:44.287Z,979.31
2023-01-12T06:14:16.170Z,979.31
2023-01-12T06:14:48.041Z,979.14
2023-01-12T06:15:20.505Z,979.31
2023-01-12T06:15:52.329Z,979.31
2023-01-12T06:16:24.003Z,979.14
2023-01-12T06:16:56.057Z,979.14
2023-01-12T06:17:28.129Z,979.24
2023-01-12T06:18:00.053Z,979.24
2023-01-12T06:18:31.953Z,979.14
2023-01-12T06:19:04.783Z,979.14
2023-01-12T06:19:35.846Z,979.04
2023-01-12T06:20:08.423Z,979.04
2023-01-12T06:20:39.862Z,979.14
2023-01-12T06:20:56.199Z,979.14
2023-01-12T06:21:39.902Z,979.31
2023-01-12T06:22:11.839Z,979.31
2023-01-12T06:22:43.949Z,978.94
2023-01-12T06:23:15.728Z,978.94
2023-01-12T06:23:47.777Z,979.14
2023-01-12T06:24:20.011Z,979.14
2023-01-12T06:24:52.018Z,979.14
2023-01-12T06:25:24.272Z,979.24
2023-01-12T06:25:55.793Z,979.24
2023-01-12T06:26:27.666Z,978.73
2023-01-12T06:26:59.790Z,978.73
2023-01-12T06:27:31.695Z,978.94
2023-01-12T06:28:04.494Z,978.94
2023-01-12T06:28:35.619Z,978.73
2023-01-12T06:29:07.807Z,978.73
2023-01-12T06:29:39.528Z,979.04
2023-01-12T06:29:55.694Z,979.04
2023-01-12T06:30:28.326Z,978.94
2023-01-12T06:30:43.702Z,978.94
2023-01-12T06:31:15.668Z,978.94
2023-01-12T06:31:47.577Z,978.94
2023-01-12T06:32:19.661Z,978.94
2023-01-12T06:32:51.485Z,978.94
2023-01-12T06:33:23.858Z,978.73
2023-01-12T06:33:55.453Z,978.73
2023-01-12T06:34:11.527Z,978.73